sensor_id;sensor_type;location;lat;lon;timestamp;temperature;humidity
46440;DHT22;32138;50.966;6.968;2023-04-01T00:00:45;11.50;99.90
46440;DHT22;32138;50.966;6.968;2023-04-01T00:01:46;11.50;99.90
46440;DHT22;32138;50.966;6.968;2023-04-01T00:02:46;11.60;99.90
46440;DHT22;32138;50.966;6.968;2023-04-01T00:03:47;11.60;99.90
46440;DHT22;32138;50.966;6.968;2023-04-01T00:04:48;11.60;99.90
46440;DHT22;32138;50.966;6.968;2023-04-01T00:05:49;11.50;99.90
46440;DHT22;32138;50.966;6.968;2023-04-01T00:06:50;11.50;99.90
46440;DHT22;32138;50.966;6.968;2023-04-01T00:07:52;11.60;99.90
46440;DHT22;32138;50.966;6.968;2023-04-01T00:08:52;11.60;99.90
46440;DHT22;32138;50.966;6.968;2023-04-01T00:09:53;11.60;99.90
46440;DHT22;32138;50.966;6.968;2023-04-01T00:10:54;11.70;99.90
46440;DHT22;32138;50.966;6.968;2023-04-01T00:11:55;11.70;99.90
46440;DHT22;32138;50.966;6.968;2023-04-01T00:12:56;11.60;99.90
46440;DHT22;32138;50.966;6.968;2023-04-01T00:13:57;11.60;99.90
46440;DHT22;32138;50.966;6.968;2023-04-01T00:14:58;11.60;99.90
46440;DHT22;32138;50.966;6.968;2023-04-01T00:15:59;11.60;99.90
46440;DHT22;32138;50.966;6.968;2023-04-01T00:17:01;11.60;99.90
46440;DHT22;32138;50.966;6.968;2023-04-01T00:18:02;11.60;99.90
46440;DHT22;32138;50.966;6.968;2023-04-01T00:19:03;11.60;99.90
46440;DHT22;32138;50.966;6.968;2023-04-01T00:20:05;11.60;99.90
46440;DHT22;32138;50.966;6.968;2023-04-01T00:21:08;11.60;99.90
46440;DHT22;32138;50.966;6.968;2023-04-01T00:22:09;11.60;99.90
46440;DHT22;32138;50.966;6.968;2023-04-01T00:23:12;11.60;99.90
46440;DHT22;32138;50.966;6.968;2023-04-01T00:24:13;11.60;99.90
46440;DHT22;32138;50.966;6.968;2023-04-01T00:25:14;11.60;99.90
46440;DHT22;32138;50.966;6.968;2023-04-01T00:26:15;11.50;99.90
46440;DHT22;32138;50.966;6.968;2023-04-01T00:27:19;11.50;99.90
46440;DHT22;32138;50.966;6.968;2023-04-01T00:28:20;11.50;99.90
46440;DHT22;32138;50.966;6.968;2023-04-01T00:29:21;11.60;99.90
46440;DHT22;32138;50.966;6.968;2023-04-01T00:30:24;11.60;99.90
46440;DHT22;32138;50.966;6.968;2023-04-01T00:31:25;11.60;99.90
46440;DHT22;32138;50.966;6.968;2023-04-01T00:32:26;11.60;99.90
46440;DHT22;32138;50.966;6.968;2023-04-01T00:33:27;11.40;99.90
46440;DHT22;32138;50.966;6.968;2023-04-01T00:34:28;11.50;99.90
46440;DHT22;32138;50.966;6.968;2023-04-01T00:35:28;11.50;99.90
46440;DHT22;32138;50.966;6.968;2023-04-01T00:36:29;11.50;99.90
46440;DHT22;32138;50.966;6.968;2023-04-01T00:37:30;11.50;99.90
46440;DHT22;32138;50.966;6.968;2023-04-01T00:38:31;11.50;99.90
46440;DHT22;32138;50.966;6.968;2023-04-01T00:39:32;11.60;99.90
46440;DHT22;32138;50.966;6.968;2023-04-01T00:40:39;11.60;99.90
46440;DHT22;32138;50.966;6.968;2023-04-01T00:41:44;11.70;99.90
46440;DHT22;32138;50.966;6.968;2023-04-01T00:42:45;11.70;99.90
46440;DHT22;32138;50.966;6.968;2023-04-01T00:43:48;11.70;99.90
46440;DHT22;32138;50.966;6.968;2023-04-01T00:44:52;11.80;99.90
46440;DHT22;32138;50.966;6.968;2023-04-01T00:45:54;11.70;99.90
46440;DHT22;32138;50.966;6.968;2023-04-01T00:46:55;11.70;99.90
46440;DHT22;32138;50.966;6.968;2023-04-01T00:47:59;11.60;99.90
46440;DHT22;32138;50.966;6.968;2023-04-01T00:49:03;11.60;99.90
46440;DHT22;32138;50.966;6.968;2023-04-01T00:50:05;11.70;99.90
46440;DHT22;32138;50.966;6.968;2023-04-01T00:51:07;11.70;99.90
46440;DHT22;32138;50.966;6.968;2023-04-01T00:52:14;11.70;99.90
46440;DHT22;32138;50.966;6.968;2023-04-01T00:53:17;11.60;99.90
46440;DHT22;32138;50.966;6.968;2023-04-01T00:54:21;11.60;99.90
46440;DHT22;32138;50.966;6.968;2023-04-01T00:55:23;11.50;99.90
46440;DHT22;32138;50.966;6.968;2023-04-01T00:56:32;11.40;99.90
46440;DHT22;32138;50.966;6.968;2023-04-01T00:57:37;11.50;99.90
46440;DHT22;32138;50.966;6.968;2023-04-01T00:58:44;11.60;99.90
46440;DHT22;32138;50.966;6.968;2023-04-01T00:59:48;11.60;99.90
46440;DHT22;32138;50.966;6.968;2023-04-01T01:00:51;11.60;99.90
46440;DHT22;32138;50.966;6.968;2023-04-01T01:01:52;11.60;99.90
46440;DHT22;32138;50.966;6.968;2023-04-01T01:02:53;11.50;99.90
46440;DHT22;32138;50.966;6.968;2023-04-01T01:03:54;11.50;99.90
46440;DHT22;32138;50.966;6.968;2023-04-01T01:04:55;11.50;99.90
46440;DHT22;32138;50.966;6.968;2023-04-01T01:11:11;11.60;99.90
46440;DHT22;32138;50.966;6.968;2023-04-01T01:12:18;11.60;99.90
46440;DHT22;32138;50.966;6.968;2023-04-01T01:13:32;11.50;99.90
46440;DHT22;32138;50.966;6.968;2023-04-01T01:17:19;11.50;99.90
46440;DHT22;32138;50.966;6.968;2023-04-01T01:22:23;11.50;99.90
46440;DHT22;32138;50.966;6.968;2023-04-01T01:24:07;11.50;99.90
46440;DHT22;32138;50.966;6.968;2023-04-01T01:25:15;11.50;99.90
46440;DHT22;32138;50.966;6.968;2023-04-01T01:26:54;11.50;99.90
46440;DHT22;32138;50.966;6.968;2023-04-01T01:30:15;11.40;99.90
46440;DHT22;32138;50.966;6.968;2023-04-01T01:31:37;11.50;99.90
46440;DHT22;32138;50.966;6.968;2023-04-01T01:35:44;11.60;99.90
46440;DHT22;32138;50.966;6.968;2023-04-01T01:36:48;11.60;99.90
46440;DHT22;32138;50.966;6.968;2023-04-01T01:38:14;11.60;99.90
46440;DHT22;32138;50.966;6.968;2023-04-01T01:39:17;11.60;99.90
46440;DHT22;32138;50.966;6.968;2023-04-01T01:40:19;11.40;99.90
46440;DHT22;32138;50.966;6.968;2023-04-01T01:41:21;11.50;99.90
46440;DHT22;32138;50.966;6.968;2023-04-01T01:42:24;11.60;99.90
46440;DHT22;32138;50.966;6.968;2023-04-01T01:43:38;11.60;99.90
46440;DHT22;32138;50.966;6.968;2023-04-01T01:44:42;11.50;99.90
46440;DHT22;32138;50.966;6.968;2023-04-01T01:45:48;11.50;99.90
46440;DHT22;32138;50.966;6.968;2023-04-01T01:46:51;11.60;99.90
46440;DHT22;32138;50.966;6.968;2023-04-01T01:47:52;11.50;99.90
46440;DHT22;32138;50.966;6.968;2023-04-01T01:48:55;11.60;99.90
46440;DHT22;32138;50.966;6.968;2023-04-01T01:49:57;11.60;99.90
46440;DHT22;32138;50.966;6.968;2023-04-01T01:50:59;11.50;99.90
46440;DHT22;32138;50.966;6.968;2023-04-01T01:52:00;11.50;99.90
46440;DHT22;32138;50.966;6.968;2023-04-01T01:53:06;11.60;99.90
46440;DHT22;32138;50.966;6.968;2023-04-01T01:54:17;11.50;99.90
46440;DHT22;32138;50.966;6.968;2023-04-01T01:55:36;11.40;99.90
46440;DHT22;32138;50.966;6.968;2023-04-01T01:56:38;11.30;99.90
46440;DHT22;32138;50.966;6.968;2023-04-01T01:57:39;11.40;99.90
46440;DHT22;32138;50.966;6.968;2023-04-01T01:58:44;11.40;99.90
46440;DHT22;32138;50.966;6.968;2023-04-01T01:59:48;11.50;99.90
46440;DHT22;32138;50.966;6.968;2023-04-01T02:01:02;11.50;99.90
46440;DHT22;32138;50.966;6.968;2023-04-01T02:02:06;11.60;99.90
46440;DHT22;32138;50.966;6.968;2023-04-01T02:03:09;11.50;99.90
46440;DHT22;32138;50.966;6.968;2023-04-01T02:04:13;11.50;99.90
46440;DHT22;32138;50.966;6.968;2023-04-01T02:05:18;11.30;99.90
46440;DHT22;32138;50.966;6.968;2023-04-01T02:06:23;11.30;99.90
46440;DHT22;32138;50.966;6.968;2023-04-01T02:07:28;11.10;99.90
46440;DHT22;32138;50.966;6.968;2023-04-01T02:08:47;11.10;99.90
46440;DHT22;32138;50.966;6.968;2023-04-01T02:09:52;11.10;99.90
46440;DHT22;32138;50.966;6.968;2023-04-01T02:11:14;11.10;99.90
46440;DHT22;32138;50.966;6.968;2023-04-01T02:12:17;11.10;99.90
46440;DHT22;32138;50.966;6.968;2023-04-01T02:13:27;11.20;99.90
46440;DHT22;32138;50.966;6.968;2023-04-01T02:14:45;11.20;99.90
46440;DHT22;32138;50.966;6.968;2023-04-01T02:15:52;11.20;99.90
46440;DHT22;32138;50.966;6.968;2023-04-01T02:17:00;11.10;99.90
46440;DHT22;32138;50.966;6.968;2023-04-01T02:18:04;10.90;99.90
46440;DHT22;32138;50.966;6.968;2023-04-01T02:19:06;10.90;99.90
46440;DHT22;32138;50.966;6.968;2023-04-01T02:20:15;10.90;99.90
46440;DHT22;32138;50.966;6.968;2023-04-01T02:21:20;10.80;99.90
46440;DHT22;32138;50.966;6.968;2023-04-01T02:22:28;10.90;99.90
46440;DHT22;32138;50.966;6.968;2023-04-01T02:23:33;10.90;99.90
46440;DHT22;32138;50.966;6.968;2023-04-01T02:24:36;10.90;99.90
46440;DHT22;32138;50.966;6.968;2023-04-01T02:25:39;10.80;99.90
46440;DHT22;32138;50.966;6.968;2023-04-01T02:26:42;10.90;99.90
46440;DHT22;32138;50.966;6.968;2023-04-01T02:27:44;11.00;99.90
46440;DHT22;32138;50.966;6.968;2023-04-01T02:28:46;11.00;99.90
46440;DHT22;32138;50.966;6.968;2023-04-01T02:29:48;10.90;99.90
46440;DHT22;32138;50.966;6.968;2023-04-01T02:30:50;10.80;99.90
46440;DHT22;32138;50.966;6.968;2023-04-01T02:31:52;10.70;99.90
46440;DHT22;32138;50.966;6.968;2023-04-01T02:32:55;10.80;99.90
46440;DHT22;32138;50.966;6.968;2023-04-01T02:33:57;10.80;99.90
46440;DHT22;32138;50.966;6.968;2023-04-01T02:34:58;10.70;99.90
46440;DHT22;32138;50.966;6.968;2023-04-01T02:36:04;10.70;99.90
46440;DHT22;32138;50.966;6.968;2023-04-01T02:37:05;10.70;99.90
46440;DHT22;32138;50.966;6.968;2023-04-01T02:38:06;10.70;99.90
46440;DHT22;32138;50.966;6.968;2023-04-01T02:39:07;10.70;99.90
46440;DHT22;32138;50.966;6.968;2023-04-01T02:40:13;10.60;99.90
46440;DHT22;32138;50.966;6.968;2023-04-01T02:41:14;10.50;99.90
46440;DHT22;32138;50.966;6.968;2023-04-01T02:42:15;10.50;99.90
46440;DHT22;32138;50.966;6.968;2023-04-01T02:43:16;10.60;99.90
46440;DHT22;32138;50.966;6.968;2023-04-01T02:44:18;10.60;99.90
46440;DHT22;32138;50.966;6.968;2023-04-01T02:45:18;10.60;99.90
46440;DHT22;32138;50.966;6.968;2023-04-01T02:46:19;10.40;99.90
46440;DHT22;32138;50.966;6.968;2023-04-01T02:47:20;10.50;99.90
46440;DHT22;32138;50.966;6.968;2023-04-01T02:48:21;10.60;99.90
46440;DHT22;32138;50.966;6.968;2023-04-01T02:49:22;10.60;99.90
46440;DHT22;32138;50.966;6.968;2023-04-01T02:50:22;10.60;99.90
46440;DHT22;32138;50.966;6.968;2023-04-01T02:51:25;10.60;99.90
46440;DHT22;32138;50.966;6.968;2023-04-01T02:52:29;10.50;99.90
46440;DHT22;32138;50.966;6.968;2023-04-01T02:53:30;10.60;99.90
46440;DHT22;32138;50.966;6.968;2023-04-01T02:54:31;10.60;99.90
46440;DHT22;32138;50.966;6.968;2023-04-01T02:55:33;10.60;99.90
46440;DHT22;32138;50.966;6.968;2023-04-01T02:56:34;10.60;99.90
46440;DHT22;32138;50.966;6.968;2023-04-01T02:57:35;10.50;99.90
46440;DHT22;32138;50.966;6.968;2023-04-01T02:58:35;10.60;99.90
46440;DHT22;32138;50.966;6.968;2023-04-01T02:59:36;10.60;99.90
46440;DHT22;32138;50.966;6.968;2023-04-01T03:00:37;10.60;99.90
46440;DHT22;32138;50.966;6.968;2023-04-01T03:01:38;10.50;99.90
46440;DHT22;32138;50.966;6.968;2023-04-01T03:02:39;10.60;99.90
46440;DHT22;32138;50.966;6.968;2023-04-01T03:03:40;10.60;99.90
46440;DHT22;32138;50.966;6.968;2023-04-01T03:04:41;10.60;99.90
46440;DHT22;32138;50.966;6.968;2023-04-01T03:05:42;10.60;99.90
46440;DHT22;32138;50.966;6.968;2023-04-01T03:06:43;10.50;99.90
46440;DHT22;32138;50.966;6.968;2023-04-01T03:07:44;10.60;99.90
46440;DHT22;32138;50.966;6.968;2023-04-01T03:08:45;10.60;99.90
46440;DHT22;32138;50.966;6.968;2023-04-01T03:09:46;10.60;99.90
46440;DHT22;32138;50.966;6.968;2023-04-01T03:10:46;10.70;99.90
46440;DHT22;32138;50.966;6.968;2023-04-01T03:11:47;10.60;99.90
46440;DHT22;32138;50.966;6.968;2023-04-01T03:12:48;10.60;99.90
46440;DHT22;32138;50.966;6.968;2023-04-01T03:13:48;10.60;99.90
46440;DHT22;32138;50.966;6.968;2023-04-01T03:14:49;10.50;99.90
46440;DHT22;32138;50.966;6.968;2023-04-01T03:15:50;10.50;99.90
46440;DHT22;32138;50.966;6.968;2023-04-01T03:16:51;10.50;99.90
46440;DHT22;32138;50.966;6.968;2023-04-01T03:17:51;10.50;99.90
46440;DHT22;32138;50.966;6.968;2023-04-01T03:18:52;10.50;99.90
46440;DHT22;32138;50.966;6.968;2023-04-01T03:19:54;10.50;99.90
46440;DHT22;32138;50.966;6.968;2023-04-01T03:20:55;10.60;99.90
46440;DHT22;32138;50.966;6.968;2023-04-01T03:21:55;10.60;99.90
46440;DHT22;32138;50.966;6.968;2023-04-01T03:22:56;10.60;99.90
46440;DHT22;32138;50.966;6.968;2023-04-01T03:23:57;10.60;99.90
46440;DHT22;32138;50.966;6.968;2023-04-01T03:24:59;10.60;99.90
46440;DHT22;32138;50.966;6.968;2023-04-01T03:25:59;10.70;99.90
46440;DHT22;32138;50.966;6.968;2023-04-01T03:27:00;10.70;99.90
46440;DHT22;32138;50.966;6.968;2023-04-01T03:28:01;10.70;99.90
46440;DHT22;32138;50.966;6.968;2023-04-01T03:29:02;10.60;99.90
46440;DHT22;32138;50.966;6.968;2023-04-01T03:30:04;10.70;99.90
46440;DHT22;32138;50.966;6.968;2023-04-01T03:31:06;10.70;99.90
46440;DHT22;32138;50.966;6.968;2023-04-01T03:32:07;10.80;99.90
46440;DHT22;32138;50.966;6.968;2023-04-01T03:33:07;10.80;99.90
46440;DHT22;32138;50.966;6.968;2023-04-01T03:34:08;10.80;99.90
46440;DHT22;32138;50.966;6.968;2023-04-01T03:35:09;10.70;99.90
46440;DHT22;32138;50.966;6.968;2023-04-01T03:36:10;10.70;99.90
46440;DHT22;32138;50.966;6.968;2023-04-01T03:37:13;10.80;99.90
46440;DHT22;32138;50.966;6.968;2023-04-01T03:38:15;10.70;99.90
46440;DHT22;32138;50.966;6.968;2023-04-01T03:39:16;10.70;99.90
46440;DHT22;32138;50.966;6.968;2023-04-01T03:40:19;10.70;99.90
46440;DHT22;32138;50.966;6.968;2023-04-01T03:41:21;10.60;99.90
46440;DHT22;32138;50.966;6.968;2023-04-01T03:42:21;10.70;99.90
46440;DHT22;32138;50.966;6.968;2023-04-01T03:43:22;10.70;99.90
46440;DHT22;32138;50.966;6.968;2023-04-01T03:44:23;10.70;99.90
46440;DHT22;32138;50.966;6.968;2023-04-01T03:45:23;10.80;99.90
46440;DHT22;32138;50.966;6.968;2023-04-01T03:46:24;10.70;99.90
46440;DHT22;32138;50.966;6.968;2023-04-01T03:47:25;10.70;99.90
46440;DHT22;32138;50.966;6.968;2023-04-01T03:48:26;10.70;99.90
46440;DHT22;32138;50.966;6.968;2023-04-01T03:49:27;10.80;99.90
46440;DHT22;32138;50.966;6.968;2023-04-01T03:50:28;10.60;99.90
46440;DHT22;32138;50.966;6.968;2023-04-01T03:51:28;10.60;99.90
46440;DHT22;32138;50.966;6.968;2023-04-01T03:52:29;10.80;99.90
46440;DHT22;32138;50.966;6.968;2023-04-01T03:53:30;10.80;99.90
46440;DHT22;32138;50.966;6.968;2023-04-01T03:54:31;10.70;99.90
46440;DHT22;32138;50.966;6.968;2023-04-01T03:55:32;10.80;99.90
46440;DHT22;32138;50.966;6.968;2023-04-01T03:56:33;10.80;99.90
46440;DHT22;32138;50.966;6.968;2023-04-01T03:57:33;10.80;99.90
46440;DHT22;32138;50.966;6.968;2023-04-01T03:58:35;10.70;99.90
46440;DHT22;32138;50.966;6.968;2023-04-01T03:59:36;10.60;99.90
46440;DHT22;32138;50.966;6.968;2023-04-01T04:00:37;10.70;99.90
46440;DHT22;32138;50.966;6.968;2023-04-01T04:01:38;10.80;99.90
46440;DHT22;32138;50.966;6.968;2023-04-01T04:02:39;10.80;99.90
46440;DHT22;32138;50.966;6.968;2023-04-01T04:03:39;10.80;99.90
46440;DHT22;32138;50.966;6.968;2023-04-01T04:04:40;10.80;99.90
46440;DHT22;32138;50.966;6.968;2023-04-01T04:05:48;10.80;99.90
46440;DHT22;32138;50.966;6.968;2023-04-01T04:06:49;10.80;99.90
46440;DHT22;32138;50.966;6.968;2023-04-01T04:07:51;10.80;99.90
46440;DHT22;32138;50.966;6.968;2023-04-01T04:08:53;10.80;99.90
46440;DHT22;32138;50.966;6.968;2023-04-01T04:09:53;10.80;99.90
46440;DHT22;32138;50.966;6.968;2023-04-01T04:10:55;10.70;99.90
46440;DHT22;32138;50.966;6.968;2023-04-01T04:11:56;10.80;99.90
46440;DHT22;32138;50.966;6.968;2023-04-01T04:12:57;10.90;99.90
46440;DHT22;32138;50.966;6.968;2023-04-01T04:13:58;10.90;99.90
46440;DHT22;32138;50.966;6.968;2023-04-01T04:14:59;11.00;99.90
46440;DHT22;32138;50.966;6.968;2023-04-01T04:16:00;11.10;99.90
46440;DHT22;32138;50.966;6.968;2023-04-01T04:17:01;11.10;99.90
46440;DHT22;32138;50.966;6.968;2023-04-01T04:18:01;11.00;99.90
46440;DHT22;32138;50.966;6.968;2023-04-01T04:19:03;10.90;99.90
46440;DHT22;32138;50.966;6.968;2023-04-01T04:20:04;10.90;99.90
46440;DHT22;32138;50.966;6.968;2023-04-01T04:21:06;11.00;99.90
46440;DHT22;32138;50.966;6.968;2023-04-01T04:22:07;11.00;99.90
46440;DHT22;32138;50.966;6.968;2023-04-01T04:23:07;10.90;99.90
46440;DHT22;32138;50.966;6.968;2023-04-01T04:24:08;10.80;99.90
46440;DHT22;32138;50.966;6.968;2023-04-01T04:25:09;10.90;99.90
46440;DHT22;32138;50.966;6.968;2023-04-01T04:26:13;10.90;99.90
46440;DHT22;32138;50.966;6.968;2023-04-01T04:27:15;11.00;99.90
46440;DHT22;32138;50.966;6.968;2023-04-01T04:28:15;11.10;99.90
46440;DHT22;32138;50.966;6.968;2023-04-01T04:29:16;11.10;99.90
46440;DHT22;32138;50.966;6.968;2023-04-01T04:30:17;11.10;99.90
46440;DHT22;32138;50.966;6.968;2023-04-01T04:31:19;11.00;99.90
46440;DHT22;32138;50.966;6.968;2023-04-01T04:32:21;11.00;99.90
46440;DHT22;32138;50.966;6.968;2023-04-01T04:33:22;10.90;99.90
46440;DHT22;32138;50.966;6.968;2023-04-01T04:34:23;10.80;99.90
46440;DHT22;32138;50.966;6.968;2023-04-01T04:35:24;10.80;99.90
46440;DHT22;32138;50.966;6.968;2023-04-01T04:36:25;10.80;99.90
46440;DHT22;32138;50.966;6.968;2023-04-01T04:37:25;10.90;99.90
46440;DHT22;32138;50.966;6.968;2023-04-01T04:38:26;11.00;99.90
46440;DHT22;32138;50.966;6.968;2023-04-01T04:39:28;10.90;99.90
46440;DHT22;32138;50.966;6.968;2023-04-01T04:40:29;10.80;99.90
46440;DHT22;32138;50.966;6.968;2023-04-01T04:41:30;10.80;99.90
46440;DHT22;32138;50.966;6.968;2023-04-01T04:42:31;10.80;99.90
46440;DHT22;32138;50.966;6.968;2023-04-01T04:43:31;10.70;99.90
46440;DHT22;32138;50.966;6.968;2023-04-01T04:44:32;10.70;99.90
46440;DHT22;32138;50.966;6.968;2023-04-01T04:45:33;10.60;99.90
46440;DHT22;32138;50.966;6.968;2023-04-01T04:46:33;10.80;99.90
46440;DHT22;32138;50.966;6.968;2023-04-01T04:47:34;10.70;99.90
46440;DHT22;32138;50.966;6.968;2023-04-01T04:48:35;10.70;99.90
46440;DHT22;32138;50.966;6.968;2023-04-01T04:49:36;10.70;99.90
46440;DHT22;32138;50.966;6.968;2023-04-01T04:50:37;10.80;99.90
46440;DHT22;32138;50.966;6.968;2023-04-01T04:51:38;10.70;99.90
46440;DHT22;32138;50.966;6.968;2023-04-01T04:52:38;10.70;99.90
46440;DHT22;32138;50.966;6.968;2023-04-01T04:53:39;10.80;99.90
46440;DHT22;32138;50.966;6.968;2023-04-01T04:54:40;10.70;99.90
46440;DHT22;32138;50.966;6.968;2023-04-01T04:55:48;10.70;99.90
46440;DHT22;32138;50.966;6.968;2023-04-01T04:56:51;10.80;99.90
46440;DHT22;32138;50.966;6.968;2023-04-01T04:57:53;10.80;99.90
46440;DHT22;32138;50.966;6.968;2023-04-01T04:58:54;10.80;99.90
46440;DHT22;32138;50.966;6.968;2023-04-01T04:59:55;10.70;99.90
46440;DHT22;32138;50.966;6.968;2023-04-01T05:00:56;10.70;99.90
46440;DHT22;32138;50.966;6.968;2023-04-01T05:01:56;10.70;99.90
46440;DHT22;32138;50.966;6.968;2023-04-01T05:02:57;10.70;99.90
46440;DHT22;32138;50.966;6.968;2023-04-01T05:03:58;10.60;99.90
46440;DHT22;32138;50.966;6.968;2023-04-01T05:04:58;10.70;99.90
46440;DHT22;32138;50.966;6.968;2023-04-01T05:05:59;10.60;99.90
46440;DHT22;32138;50.966;6.968;2023-04-01T05:07:00;10.70;99.90
46440;DHT22;32138;50.966;6.968;2023-04-01T05:08:01;10.70;99.90
46440;DHT22;32138;50.966;6.968;2023-04-01T05:09:02;10.80;99.90
46440;DHT22;32138;50.966;6.968;2023-04-01T05:10:03;10.80;99.90
46440;DHT22;32138;50.966;6.968;2023-04-01T05:11:07;10.60;99.90
46440;DHT22;32138;50.966;6.968;2023-04-01T05:12:10;10.60;99.90
46440;DHT22;32138;50.966;6.968;2023-04-01T05:13:13;10.70;99.90
46440;DHT22;32138;50.966;6.968;2023-04-01T05:14:15;10.60;99.90
46440;DHT22;32138;50.966;6.968;2023-04-01T05:15:16;10.60;99.90
46440;DHT22;32138;50.966;6.968;2023-04-01T05:16:18;10.60;99.90
46440;DHT22;32138;50.966;6.968;2023-04-01T05:17:20;10.60;99.90
46440;DHT22;32138;50.966;6.968;2023-04-01T05:18:21;10.60;99.90
46440;DHT22;32138;50.966;6.968;2023-04-01T05:19:22;10.60;99.90
46440;DHT22;32138;50.966;6.968;2023-04-01T05:20:22;10.60;99.90
46440;DHT22;32138;50.966;6.968;2023-04-01T05:21:23;10.80;99.90
46440;DHT22;32138;50.966;6.968;2023-04-01T05:22:24;10.80;99.90
46440;DHT22;32138;50.966;6.968;2023-04-01T05:23:25;10.80;99.90
46440;DHT22;32138;50.966;6.968;2023-04-01T05:24:26;10.70;99.90
46440;DHT22;32138;50.966;6.968;2023-04-01T05:25:27;10.80;99.90
46440;DHT22;32138;50.966;6.968;2023-04-01T05:26:28;10.80;99.90
46440;DHT22;32138;50.966;6.968;2023-04-01T05:27:28;10.70;99.90
46440;DHT22;32138;50.966;6.968;2023-04-01T05:28:29;10.70;99.90
46440;DHT22;32138;50.966;6.968;2023-04-01T05:29:30;10.70;99.90
46440;DHT22;32138;50.966;6.968;2023-04-01T05:30:31;10.70;99.90
46440;DHT22;32138;50.966;6.968;2023-04-01T05:31:31;10.50;99.90
46440;DHT22;32138;50.966;6.968;2023-04-01T05:32:33;10.60;99.90
46440;DHT22;32138;50.966;6.968;2023-04-01T05:33:34;10.70;99.90
46440;DHT22;32138;50.966;6.968;2023-04-01T05:34:35;10.70;99.90
46440;DHT22;32138;50.966;6.968;2023-04-01T05:35:35;10.70;99.90
46440;DHT22;32138;50.966;6.968;2023-04-01T05:36:36;10.60;99.90
46440;DHT22;32138;50.966;6.968;2023-04-01T05:37:37;10.70;99.90
46440;DHT22;32138;50.966;6.968;2023-04-01T05:38:38;10.80;99.90
46440;DHT22;32138;50.966;6.968;2023-04-01T05:39:39;10.70;99.90
46440;DHT22;32138;50.966;6.968;2023-04-01T05:40:40;10.60;99.90
46440;DHT22;32138;50.966;6.968;2023-04-01T05:41:41;10.50;99.90
46440;DHT22;32138;50.966;6.968;2023-04-01T05:42:42;10.50;99.90
46440;DHT22;32138;50.966;6.968;2023-04-01T05:43:42;10.40;99.90
46440;DHT22;32138;50.966;6.968;2023-04-01T05:44:43;10.50;99.90
46440;DHT22;32138;50.966;6.968;2023-04-01T05:45:44;10.40;99.90
46440;DHT22;32138;50.966;6.968;2023-04-01T05:46:45;10.50;99.90
46440;DHT22;32138;50.966;6.968;2023-04-01T05:47:46;10.50;99.90
46440;DHT22;32138;50.966;6.968;2023-04-01T05:48:46;10.50;99.90
46440;DHT22;32138;50.966;6.968;2023-04-01T05:49:47;10.50;99.90
46440;DHT22;32138;50.966;6.968;2023-04-01T05:50:48;10.40;99.90
46440;DHT22;32138;50.966;6.968;2023-04-01T05:51:49;10.50;99.90
46440;DHT22;32138;50.966;6.968;2023-04-01T05:52:50;10.50;99.90
46440;DHT22;32138;50.966;6.968;2023-04-01T05:53:50;10.40;99.90
46440;DHT22;32138;50.966;6.968;2023-04-01T05:54:51;10.40;99.90
46440;DHT22;32138;50.966;6.968;2023-04-01T05:55:52;10.40;99.90
46440;DHT22;32138;50.966;6.968;2023-04-01T05:56:53;10.50;99.90
46440;DHT22;32138;50.966;6.968;2023-04-01T05:57:53;10.50;99.90
46440;DHT22;32138;50.966;6.968;2023-04-01T05:58:54;10.50;99.90
46440;DHT22;32138;50.966;6.968;2023-04-01T05:59:55;10.60;99.90
46440;DHT22;32138;50.966;6.968;2023-04-01T06:01:07;10.50;99.90
46440;DHT22;32138;50.966;6.968;2023-04-01T06:02:09;10.60;99.90
46440;DHT22;32138;50.966;6.968;2023-04-01T06:03:11;10.70;99.90
46440;DHT22;32138;50.966;6.968;2023-04-01T06:04:16;10.60;99.90
46440;DHT22;32138;50.966;6.968;2023-04-01T06:05:19;10.60;99.90
46440;DHT22;32138;50.966;6.968;2023-04-01T06:06:29;10.70;99.90
46440;DHT22;32138;50.966;6.968;2023-04-01T06:07:32;10.60;99.90
46440;DHT22;32138;50.966;6.968;2023-04-01T06:08:33;10.60;99.90
46440;DHT22;32138;50.966;6.968;2023-04-01T06:09:33;10.60;99.90
46440;DHT22;32138;50.966;6.968;2023-04-01T06:10:48;10.40;99.90
46440;DHT22;32138;50.966;6.968;2023-04-01T06:12:22;10.40;99.90
46440;DHT22;32138;50.966;6.968;2023-04-01T06:26:17;10.50;99.90
46440;DHT22;32138;50.966;6.968;2023-04-01T06:30:43;10.60;99.90
46440;DHT22;32138;50.966;6.968;2023-04-01T06:42:02;10.70;99.90
46440;DHT22;32138;50.966;6.968;2023-04-01T06:50:32;10.70;99.90
46440;DHT22;32138;50.966;6.968;2023-04-01T06:53:15;10.60;99.90
46440;DHT22;32138;50.966;6.968;2023-04-01T06:54:24;10.70;99.90
46440;DHT22;32138;50.966;6.968;2023-04-01T06:55:43;10.70;99.90
46440;DHT22;32138;50.966;6.968;2023-04-01T06:56:51;10.80;99.90
46440;DHT22;32138;50.966;6.968;2023-04-01T06:57:57;10.80;99.90
46440;DHT22;32138;50.966;6.968;2023-04-01T06:59:07;10.80;99.90
46440;DHT22;32138;50.966;6.968;2023-04-01T07:00:29;10.70;99.90
46440;DHT22;32138;50.966;6.968;2023-04-01T07:01:52;10.70;99.90
46440;DHT22;32138;50.966;6.968;2023-04-01T07:03:07;10.90;99.90
46440;DHT22;32138;50.966;6.968;2023-04-01T07:04:25;10.90;99.90
46440;DHT22;32138;50.966;6.968;2023-04-01T07:05:31;10.80;99.90
46440;DHT22;32138;50.966;6.968;2023-04-01T07:06:39;10.90;99.90
46440;DHT22;32138;50.966;6.968;2023-04-01T07:07:47;10.80;99.90
46440;DHT22;32138;50.966;6.968;2023-04-01T07:08:50;10.80;99.90
46440;DHT22;32138;50.966;6.968;2023-04-01T07:09:55;10.80;99.90
46440;DHT22;32138;50.966;6.968;2023-04-01T07:11:06;10.80;99.90
46440;DHT22;32138;50.966;6.968;2023-04-01T07:12:21;10.80;99.90
46440;DHT22;32138;50.966;6.968;2023-04-01T07:13:58;10.90;99.90
46440;DHT22;32138;50.966;6.968;2023-04-01T07:15:13;11.10;99.90
46440;DHT22;32138;50.966;6.968;2023-04-01T07:16:27;11.10;99.90
46440;DHT22;32138;50.966;6.968;2023-04-01T07:17:33;11.50;99.90
46440;DHT22;32138;50.966;6.968;2023-04-01T07:23:28;11.70;99.90
46440;DHT22;32138;50.966;6.968;2023-04-01T07:24:36;11.60;99.90
46440;DHT22;32138;50.966;6.968;2023-04-01T07:25:46;11.40;99.90
46440;DHT22;32138;50.966;6.968;2023-04-01T07:26:53;11.40;99.90
46440;DHT22;32138;50.966;6.968;2023-04-01T07:28:11;11.30;99.90
46440;DHT22;32138;50.966;6.968;2023-04-01T07:29:14;11.20;99.90
46440;DHT22;32138;50.966;6.968;2023-04-01T07:30:21;11.20;99.90
46440;DHT22;32138;50.966;6.968;2023-04-01T07:34:14;11.00;99.90
46440;DHT22;32138;50.966;6.968;2023-04-01T07:35:43;11.00;99.90
46440;DHT22;32138;50.966;6.968;2023-04-01T07:44:45;11.10;99.90
46440;DHT22;32138;50.966;6.968;2023-04-01T07:49:17;11.10;99.90
46440;DHT22;32138;50.966;6.968;2023-04-01T07:50:41;10.90;99.90
46440;DHT22;32138;50.966;6.968;2023-04-01T07:54:29;11.20;99.90
46440;DHT22;32138;50.966;6.968;2023-04-01T07:57:19;11.00;99.90